Time;durP1;ratioP1;P1;durP2;ratioP2;P2;SDS_P1;SDS_P2;PMS_P1;PMS_P2;Temp;Humidity;BMP_temperature;BMP_pressure;BME280_temperature;BME280_humidity;BME280_pressure;Samples;Min_cycle;Max_cycle;Signal;HPM_P1;HPM_P2
2022/07/25 06:12:06;;;;;;;12.20;11.10;;;;;;;;;;6152785;23;20055;-85
2022/07/25 06:14:31;;;;;;;12.15;11.05;;;;;;;;;;6216046;23;20009;-86
2022/07/25 06:16:57;;;;;;;13.65;12.45;;;;;;;;;;6215846;23;20355;-84
2022/07/25 06:19:23;;;;;;;12.38;11.10;;;;;;;;;;6192611;23;20005;-84
2022/07/25 06:21:48;;;;;;;13.60;12.40;;;;;;;;;;6185999;23;20331;-85
2022/07/25 09:13:56;;;;;;;13.52;12.20;;;;;;;;;;6107287;23;20057;-85
2022/07/25 09:16:28;;;;;;;14.35;11.88;;;;;;;;;;6127234;23;20014;-88
2022/07/25 09:19:09;;;;;;;12.27;11.18;;;;;;;;;;6125591;23;20112;-89
2022/07/25 09:21:35;;;;;;;12.15;10.95;;;;;;;;;;6102247;23;20003;-89
2022/07/25 09:24:08;;;;;;;12.50;11.27;;;;;;;;;;6096249;23;20065;-88
2022/07/25 09:26:45;;;;;;;12.38;11.27;;;;;;;;;;6098086;23;20029;-86
2022/07/25 09:29:19;;;;;;;11.98;10.85;;;;;;;;;;6095869;23;20077;-88
2022/07/25 09:31:45;;;;;;;12.63;11.40;;;;;;;;;;6097621;23;20011;-87
2022/07/25 09:34:11;;;;;;;11.70;10.60;;;;;;;;;;6097690;23;20070;-86
2022/07/25 09:36:49;;;;;;;12.10;11.00;;;;;;;;;;6097674;23;20003;-86
2022/07/25 09:39:14;;;;;;;12.02;11.02;;;;;;;;;;6097413;23;20007;-86
2022/07/25 09:41:40;;;;;;;12.20;10.52;;;;;;;;;;6097367;23;20017;-86
2022/07/25 09:44:21;;;;;;;11.23;10.30;;;;;;;;;;6097870;23;20011;-86
2022/07/25 09:46:47;;;;;;;11.40;10.27;;;;;;;;;;6097519;23;20003;-86
2022/07/25 09:49:13;;;;;;;11.90;10.70;;;;;;;;;;6097386;23;20002;-86
2022/07/25 09:51:42;;;;;;;10.93;9.93;;;;;;;;;;6097458;23;20049;-85
2022/07/25 09:54:07;;;;;;;11.93;10.82;;;;;;;;;;6097414;23;20029;-86
2022/07/25 09:56:34;;;;;;;11.63;10.60;;;;;;;;;;6072031;23;20006;-90
2022/07/25 09:59:01;;;;;;;11.75;10.60;;;;;;;;;;6120352;23;20118;-86
2022/07/25 10:01:34;;;;;;;14.57;10.70;;;;;;;;;;6097637;23;20013;-87
2022/07/25 10:04:08;;;;;;;12.68;10.77;;;;;;;;;;6097455;23;20003;-86
2022/07/25 10:06:51;;;;;;;12.07;10.43;;;;;;;;;;6097351;23;20326;-87
2022/07/25 10:09:17;;;;;;;11.05;9.95;;;;;;;;;;6071795;23;20008;-88
2022/07/25 10:12:05;;;;;;;10.80;9.50;;;;;;;;;;6095753;23;20395;-88
2022/07/25 10:14:32;;;;;;;10.43;9.45;;;;;;;;;;6097954;23;20018;-87
2022/07/25 10:16:59;;;;;;;10.38;9.48;;;;;;;;;;6099056;23;20011;-85
2022/07/25 10:19:46;;;;;;;10.50;9.50;;;;;;;;;;6099568;23;20093;-86
2022/07/25 10:22:12;;;;;;;10.65;9.60;;;;;;;;;;6099493;23;20003;-86
2022/07/25 10:24:44;;;;;;;10.90;9.88;;;;;;;;;;6073363;23;20021;-87
2022/07/25 10:27:21;;;;;;;10.63;9.48;;;;;;;;;;6099139;23;20007;-86
2022/07/25 10:29:53;;;;;;;10.35;9.38;;;;;;;;;;6099005;23;20058;-84
2022/07/25 10:32:24;;;;;;;10.02;9.20;;;;;;;;;;6099523;23;20077;-85
2022/07/25 10:34:53;;;;;;;10.02;9.18;;;;;;;;;;6073725;23;20315;-86
2022/07/25 10:37:26;;;;;;;10.07;9.07;;;;;;;;;;6099404;23;20009;-85
2022/07/25 10:39:51;;;;;;;11.00;10.05;;;;;;;;;;6097480;23;20066;-85
2022/07/25 10:42:20;;;;;;;9.90;8.95;;;;;;;;;;6099767;23;20010;-84
2022/07/25 10:44:56;;;;;;;10.07;8.85;;;;;;;;;;6098997;23;20010;-83
2022/07/25 10:47:25;;;;;;;9.55;8.75;;;;;;;;;;6099268;23;20382;-87
2022/07/25 10:49:57;;;;;;;10.35;8.85;;;;;;;;;;6098936;23;20003;-87
2022/07/25 10:52:27;;;;;;;8.63;7.85;;;;;;;;;;6098881;23;20334;-87
2022/07/25 10:54:57;;;;;;;9.07;8.25;;;;;;;;;;6099141;23;20027;-87
2022/07/25 10:57:22;;;;;;;8.82;8.02;;;;;;;;;;6073487;23;20006;-87
2022/07/25 10:59:48;;;;;;;9.43;8.50;;;;;;;;;;6072986;23;20415;-87
2022/07/25 11:02:17;;;;;;;8.20;7.40;;;;;;;;;;6098909;23;20003;-87
2022/07/25 11:04:44;;;;;;;8.35;7.50;;;;;;;;;;6098905;23;20007;-87
2022/07/25 11:07:14;;;;;;;8.57;7.97;;;;;;;;;;6098918;23;20062;-87
2022/07/25 11:09:42;;;;;;;7.88;7.20;;;;;;;;;;6098566;23;20006;-87
2022/07/25 11:12:08;;;;;;;8.05;7.35;;;;;;;;;;6098992;23;20002;-86
2022/07/25 11:14:40;;;;;;;7.32;6.60;;;;;;;;;;6098228;23;20010;-87
2022/07/25 11:17:18;;;;;;;8.20;7.47;;;;;;;;;;6098371;23;20003;-86
2022/07/25 11:19:59;;;;;;;7.47;6.80;;;;;;;;;;6098390;23;20037;-88
2022/07/25 11:22:26;;;;;;;9.52;7.68;;;;;;;;;;6098892;23;20007;-87
2022/07/25 11:24:52;;;;;;;12.20;7.60;;;;;;;;;;6098423;23;20330;-87
2022/07/25 11:27:30;;;;;;;8.85;7.78;;;;;;;;;;6098675;23;20006;-86
2022/07/25 11:30:15;;;;;;;;;;;;;;;;;;6098844;23;20081;-86
2022/07/25 11:32:42;;;;;;;8.93;7.63;;;;;;;;;;6098230;23;19909;-89
2022/07/25 11:35:12;;;;;;;8.60;7.60;;;;;;;;;;6099420;23;20010;-85
2022/07/25 11:37:39;;;;;;;9.15;8.25;;;;;;;;;;6121529;23;20011;-84
2022/07/25 11:40:06;;;;;;;8.67;7.87;;;;;;;;;;6098425;23;20010;-84
2022/07/25 11:42:43;;;;;;;9.32;7.32;;;;;;;;;;6073012;23;20002;-87
2022/07/25 11:45:29;;;;;;;8.52;7.72;;;;;;;;;;6098440;23;20445;-84
2022/07/25 16:57:39;;;;;;;10.48;9.43;;;;;;;;;;6192093;23;20009;-81
2022/07/25 17:00:07;;;;;;;13.00;9.93;;;;;;;;;;6186476;23;20017;-86
2022/07/25 17:02:33;;;;;;;16.67;10.15;;;;;;;;;;6184629;23;20001;-83
2022/07/25 17:04:58;;;;;;;10.70;9.65;;;;;;;;;;6156485;23;20006;-86
2022/07/25 17:07:24;;;;;;;12.85;9.68;;;;;;;;;;6156712;23;20001;-85
2022/07/25 17:09:50;;;;;;;12.05;9.63;;;;;;;;;;6179918;23;20009;-88
2022/07/25 17:12:16;;;;;;;10.95;9.43;;;;;;;;;;6156489;23;20012;-87
2022/07/25 17:14:42;;;;;;;10.98;9.88;;;;;;;;;;6156327;23;20009;-86
2022/07/25 17:17:07;;;;;;;10.30;9.20;;;;;;;;;;6155041;23;20499;-88
2022/07/25 17:19:38;;;;;;;12.32;9.68;;;;;;;;;;6156453;23;20044;-89
2022/07/25 17:22:04;;;;;;;12.77;9.65;;;;;;;;;;6156478;23;20093;-88
2022/07/25 17:24:29;;;;;;;15.10;10.23;;;;;;;;;;6156358;23;20001;-85
2022/07/25 17:26:55;;;;;;;10.32;9.07;;;;;;;;;;6156265;23;20001;-88
2022/07/25 17:29:20;;;;;;;15.05;9.85;;;;;;;;;;6156348;23;20012;-86
2022/07/25 17:31:46;;;;;;;12.23;10.10;;;;;;;;;;6179589;23;20013;-88
2022/07/25 17:34:11;;;;;;;13.55;9.93;;;;;;;;;;6156262;23;20009;-88
2022/07/25 17:36:37;;;;;;;13.80;10.45;;;;;;;;;;6156314;23;20013;-89
2022/07/25 17:39:03;;;;;;;10.75;9.52;;;;;;;;;;6156320;23;20002;-88
2022/07/25 17:41:28;;;;;;;15.07;10.13;;;;;;;;;;6179861;23;20096;-88
2022/07/25 17:43:53;;;;;;;12.35;10.85;;;;;;;;;;6154783;23;20009;-86
2022/07/25 17:46:20;;;;;;;11.38;9.38;;;;;;;;;;6156575;23;20024;-87
2022/07/25 17:48:45;;;;;;;15.32;9.70;;;;;;;;;;6156554;23;20353;-87
2022/07/25 17:51:11;;;;;;;11.50;9.73;;;;;;;;;;6179318;23;20006;-88
2022/07/25 17:53:37;;;;;;;15.10;10.02;;;;;;;;;;6179434;23;20037;-85
2022/07/25 17:56:03;;;;;;;10.70;9.52;;;;;;;;;;6156694;23;20013;-88
2022/07/25 17:58:29;;;;;;;15.05;9.95;;;;;;;;;;6179505;23;20017;-89
2022/07/25 18:00:55;;;;;;;10.65;9.55;;;;;;;;;;6156089;23;20024;-88
2022/07/25 18:03:20;;;;;;;13.68;9.45;;;;;;;;;;6179663;23;20010;-89
2022/07/25 18:05:46;;;;;;;11.48;9.70;;;;;;;;;;6157355;23;20421;-90
2022/07/25 18:08:12;;;;;;;12.93;9.48;;;;;;;;;;6179804;23;20009;-91
2022/07/25 18:10:37;;;;;;;11.63;9.18;;;;;;;;;;6156681;23;20044;-90
2022/07/25 18:13:03;;;;;;;10.60;9.60;;;;;;;;;;6156500;23;20085;-87
2022/07/25 18:15:29;;;;;;;10.70;9.07;;;;;;;;;;6156629;23;20001;-90
2022/07/25 18:17:55;;;;;;;12.02;9.68;;;;;;;;;;6157187;23;20061;-92
2022/07/25 18:20:20;;;;;;;10.50;9.50;;;;;;;;;;6156712;23;20027;-85
2022/07/25 18:22:46;;;;;;;11.00;9.77;;;;;;;;;;6156180;23;20001;-87
2022/07/25 18:25:13;;;;;;;17.98;9.98;;;;;;;;;;6157161;23;20322;-94
2022/07/25 18:27:43;;;;;;;10.88;9.85;;;;;;;;;;6157027;23;20005;-94
2022/07/25 18:30:09;;;;;;;12.10;9.75;;;;;;;;;;6156801;23;20002;-86
2022/07/25 18:32:35;;;;;;;10.65;9.55;;;;;;;;;;6154394;23;20018;-87
2022/07/25 18:35:01;;;;;;;14.23;10.88;;;;;;;;;;6156059;23;20029;-86
2022/07/25 18:37:26;;;;;;;12.18;9.20;;;;;;;;;;6156927;23;20313;-86
2022/07/25 18:39:52;;;;;;;12.27;9.40;;;;;;;;;;6157651;23;20029;-87
2022/07/25 18:42:17;;;;;;;13.88;10.65;;;;;;;;;;6157854;23;20363;-87
2022/07/25 18:44:43;;;;;;;12.50;9.38;;;;;;;;;;6156091;23;20306;-86
2022/07/25 18:47:08;;;;;;;18.38;10.88;;;;;;;;;;6156223;23;20006;-86
2022/07/25 18:49:34;;;;;;;10.38;9.18;;;;;;;;;;6156211;23;20108;-86
2022/07/25 18:51:59;;;;;;;12.38;9.63;;;;;;;;;;6157774;23;20005;-86
2022/07/25 18:54:25;;;;;;;10.02;9.05;;;;;;;;;;6180807;23;20436;-86
2022/07/25 18:56:50;;;;;;;10.45;9.25;;;;;;;;;;6167216;23;20017;-86
2022/07/25 18:59:16;;;;;;;13.20;9.68;;;;;;;;;;6187345;23;20439;-86
2022/07/25 19:01:41;;;;;;;11.68;10.05;;;;;;;;;;6187382;23;20008;-89
2022/07/25 19:04:07;;;;;;;10.32;9.32;;;;;;;;;;6187326;23;20001;-87
2022/07/25 19:06:32;;;;;;;10.90;9.15;;;;;;;;;;6187430;23;20075;-87
2022/07/25 19:08:58;;;;;;;11.85;9.35;;;;;;;;;;6187373;23;20364;-86
2022/07/25 19:11:23;;;;;;;9.85;8.75;;;;;;;;;;6187131;23;20005;-86
2022/07/25 19:13:49;;;;;;;14.32;10.55;;;;;;;;;;6187054;23;20051;-86
2022/07/25 19:16:14;;;;;;;13.25;9.70;;;;;;;;;;6160898;23;20091;-86
2022/07/25 19:18:40;;;;;;;14.25;9.40;;;;;;;;;;6187291;23;20356;-86
2022/07/25 19:21:06;;;;;;;12.55;8.90;;;;;;;;;;6187018;23;20012;-86
2022/07/25 19:23:31;;;;;;;11.98;9.05;;;;;;;;;;6160847;23;20109;-86
2022/07/25 19:25:57;;;;;;;11.65;9.40;;;;;;;;;;6160748;23;20490;-86
2022/07/25 19:28:23;;;;;;;10.75;9.55;;;;;;;;;;6187191;23;20032;-86
2022/07/25 19:30:48;;;;;;;11.48;9.05;;;;;;;;;;6160641;23;20001;-86
2022/07/25 19:33:14;;;;;;;10.38;9.27;;;;;;;;;;6187524;23;20009;-86
2022/07/25 19:35:39;;;;;;;9.90;8.90;;;;;;;;;;6160770;23;20336;-86
2022/07/25 19:38:06;;;;;;;10.02;8.93;;;;;;;;;;6187195;23;20001;-87
2022/07/25 19:40:32;;;;;;;12.68;9.10;;;;;;;;;;6187816;23;20016;-94
2022/07/25 19:43:00;;;;;;;11.55;9.73;;;;;;;;;;6188140;23;20001;-91
2022/07/25 19:45:25;;;;;;;13.45;8.98;;;;;;;;;;6188766;23;20332;-89
2022/07/25 19:47:51;;;;;;;10.30;9.20;;;;;;;;;;6186997;23;20001;-87
2022/07/25 19:50:16;;;;;;;11.13;9.50;;;;;;;;;;6186919;23;20009;-85
2022/07/25 19:52:42;;;;;;;10.38;9.38;;;;;;;;;;6187046;23;20025;-85
2022/07/25 19:55:08;;;;;;;11.45;8.77;;;;;;;;;;6187441;23;20033;-87
2022/07/25 19:57:34;;;;;;;11.02;9.52;;;;;;;;;;6185043;23;20028;-84
2022/07/25 20:00:00;;;;;;;10.57;8.45;;;;;;;;;;6186845;23;20325;-86
2022/07/25 20:02:25;;;;;;;10.95;8.65;;;;;;;;;;6187576;23;20039;-88
2022/07/25 20:04:51;;;;;;;9.05;8.15;;;;;;;;;;6160888;23;20423;-89
2022/07/25 20:07:16;;;;;;;10.07;8.45;;;;;;;;;;6187187;23;20005;-88
2022/07/25 20:09:42;;;;;;;11.82;9.00;;;;;;;;;;6187140;23;20429;-88
2022/07/25 20:12:07;;;;;;;12.38;8.57;;;;;;;;;;6186908;23;20009;-88
2022/07/25 20:14:33;;;;;;;9.85;8.93;;;;;;;;;;6187417;23;20000;-88
2022/07/25 20:16:59;;;;;;;12.82;9.00;;;;;;;;;;6187207;23;20001;-88
2022/07/25 20:19:24;;;;;;;9.75;8.77;;;;;;;;;;6186994;23;20070;-87
2022/07/25 20:21:50;;;;;;;9.88;8.68;;;;;;;;;;6187022;23;20001;-88
2022/07/25 20:24:15;;;;;;;12.18;8.40;;;;;;;;;;6186646;23;20008;-87
2022/07/25 20:26:41;;;;;;;9.95;8.95;;;;;;;;;;6187126;23;20001;-87
2022/07/25 20:29:06;;;;;;;10.60;9.65;;;;;;;;;;6187172;23;20413;-89
2022/07/25 20:31:35;;;;;;;10.45;8.80;;;;;;;;;;6185592;23;20004;-89
2022/07/25 20:34:01;;;;;;;9.68;8.77;;;;;;;;;;6186531;23;20021;-88
2022/07/25 20:36:26;;;;;;;9.80;8.90;;;;;;;;;;6186943;23;20020;-89
2022/07/25 20:38:52;;;;;;;11.10;10.10;;;;;;;;;;6186920;23;20169;-87
2022/07/25 20:41:17;;;;;;;11.32;8.85;;;;;;;;;;6186958;23;20008;-88
2022/07/25 20:43:43;;;;;;;8.95;8.05;;;;;;;;;;6185131;23;20063;-89
2022/07/25 20:46:08;;;;;;;10.23;8.48;;;;;;;;;;6186847;23;20064;-88
2022/07/25 20:48:34;;;;;;;9.75;8.85;;;;;;;;;;6160161;23;20009;-89
2022/07/25 20:51:00;;;;;;;8.10;7.25;;;;;;;;;;6187163;23;20008;-89
2022/07/25 20:53:25;;;;;;;9.52;6.93;;;;;;;;;;6186292;23;20008;-86
2022/07/25 20:55:51;;;;;;;7.25;6.18;;;;;;;;;;6186588;23;20333;-90
2022/07/25 20:58:16;;;;;;;9.25;6.70;;;;;;;;;;6186434;23;20013;-88
2022/07/25 21:00:43;;;;;;;6.55;5.95;;;;;;;;;;6186191;23;20009;-88
2022/07/25 21:03:08;;;;;;;11.73;6.47;;;;;;;;;;6186484;23;20336;-87
2022/07/25 21:05:36;;;;;;;9.90;5.82;;;;;;;;;;6186305;23;20005;-86
2022/07/25 21:08:02;;;;;;;7.45;5.90;;;;;;;;;;6186384;23;20005;-85
2022/07/25 21:10:28;;;;;;;18.60;5.20;;;;;;;;;;6186371;23;20009;-87
2022/07/25 21:12:55;;;;;;;6.15;4.50;;;;;;;;;;6186132;23;20071;-89
2022/07/25 21:15:21;;;;;;;7.80;4.03;;;;;;;;;;6186408;23;20071;-88
2022/07/25 21:17:47;;;;;;;7.65;4.47;;;;;;;;;;6186188;23;19997;-87
2022/07/25 21:20:13;;;;;;;8.23;4.03;;;;;;;;;;6186309;23;20076;-87
2022/07/25 21:22:40;;;;;;;5.32;3.38;;;;;;;;;;6186231;23;20001;-89
2022/07/25 21:25:06;;;;;;;5.97;3.70;;;;;;;;;;6186678;23;20429;-81
2022/07/25 21:27:31;;;;;;;5.05;3.88;;;;;;;;;;6186591;23;20028;-86
2022/07/25 21:29:57;;;;;;;6.25;3.17;;;;;;;;;;6186906;23;20009;-86
2022/07/25 21:32:22;;;;;;;9.35;3.90;;;;;;;;;;6186473;23;20079;-85
2022/07/25 21:34:48;;;;;;;19.60;4.97;;;;;;;;;;6186241;23;19997;-85
